Accueil
METAR-TAF:

METAR-TAF

Aéroports :

Ostende, Belgique

Aéroport d'Ostende-Bruges

latitude: 51-12N, longitude: 002-52E, altitude: 4 m

Observation

Le bulletin a été fait il y a 35 minutes, à 06:20 UTC
Vent 10 kt de ouest/sud-ouest
Température 18°C
Humidité 83%
Pression 1015 hPa
Visibilité 10 km ou plus
Quelques nuages à une hauteur de 1200 ft
Nuages fragmentés à une hauteur de 3700 ft

METAR: EBOS 230620Z 25010KT 9999 FEW012 BKN037 18/15 Q1015 NOSIG

Heure: 08:55 (06:55 UTC)

Prévision

Le bulletin a été fait il y a 1 heure et 2 minutes, à 05:53 UTC
Prévision valable du 23 à 06 UTC au 24 à 12 UTC
Vent 14 kt de ouest/sud-ouest
Visibilité 10 km ou plus
Nuages épars à une hauteur de 2000 ft

TAF: EBOS 230553Z 2306/2412 25014KT 9999 SCT020

Observations et prévisions météorologiques de plus de 4000 aéroports (messages METAR et TAF).

Les stations disponibles sont représentées par des disques jaunes et rouges sur la carte.

Passer la souris dessus pour voir le nom de la station.

Cliquer dessus pour voir les observations et prévisions météorologiques.

Pour changer de carte: cliquez sur les boutons verts avec une croix noire pour zoomer, sur le bouton vert avec un tiret pour effectuer un zoom arrière, ou sur les flèches vertes pour les cartes adjacentes.


METAR-TAF: